sensor_id;sensor_type;location;lat;lon;timestamp;pressure;altitude;pressure_sealevel;temperature;humidity
20037;BME280;10179;42.640;23.312;2022-11-10T00:02:03;94315.59;;;12.11;54.58
20037;BME280;10179;42.640;23.312;2022-11-10T00:04:29;94000.19;;;9.98;54.67
20037;BME280;10179;42.640;23.312;2022-11-10T00:06:54;94337.53;;;12.24;54.64
20037;BME280;10179;42.640;23.312;2022-11-10T00:09:19;94318.78;;;12.13;54.38
20037;BME280;10179;42.640;23.312;2022-11-10T00:11:45;94336.97;;;12.22;54.38
20037;BME280;10179;42.640;23.312;2022-11-10T00:14:11;94345.84;;;12.21;54.38
20037;BME280;10179;42.640;23.312;2022-11-10T00:16:55;94347.50;;;12.22;54.44
20037;BME280;10179;42.640;23.312;2022-11-10T00:19:30;94342.22;;;12.22;54.56
20037;BME280;10179;42.640;23.312;2022-11-10T00:21:55;94365.94;;;12.22;54.96
20037;BME280;10179;42.640;23.312;2022-11-10T00:24:21;94323.53;;;12.05;55.00
20037;BME280;10179;42.640;23.312;2022-11-10T00:26:47;94310.16;;;12.06;55.04
20037;BME280;10179;42.640;23.312;2022-11-10T00:29:12;94310.31;;;12.11;54.92
20037;BME280;10179;42.640;23.312;2022-11-10T00:31:39;94340.91;;;12.31;54.95
20037;BME280;10179;42.640;23.312;2022-11-10T00:34:05;94332.44;;;12.29;54.61
20037;BME280;10179;42.640;23.312;2022-11-10T00:36:31;94222.72;;;11.54;54.52
20037;BME280;10179;42.640;23.312;2022-11-10T00:38:56;94323.63;;;12.16;54.52
20037;BME280;10179;42.640;23.312;2022-11-10T00:41:21;94329.50;;;12.18;54.64
20037;BME280;10179;42.640;23.312;2022-11-10T00:43:47;94327.28;;;12.15;54.73
20037;BME280;10179;42.640;23.312;2022-11-10T00:46:13;94287.41;;;11.93;55.04
20037;BME280;10179;42.640;23.312;2022-11-10T00:48:39;94327.28;;;12.15;54.87
20037;BME280;10179;42.640;23.312;2022-11-10T00:51:05;94316.75;;;12.15;55.30
20037;BME280;10179;42.640;23.312;2022-11-10T00:53:31;94321.59;;;12.18;55.14
20037;BME280;10179;42.640;23.312;2022-11-10T00:55:56;94256.31;;;11.84;55.14
20037;BME280;10179;42.640;23.312;2022-11-10T00:58:22;94321.59;;;12.18;55.10
20037;BME280;10179;42.640;23.312;2022-11-10T01:00:47;94322.59;;;12.17;55.15
20037;BME280;10179;42.640;23.312;2022-11-10T01:03:15;94305.19;;;12.16;55.39
20037;BME280;10179;42.640;23.312;2022-11-10T01:05:41;94279.28;;;11.95;55.31
20037;BME280;10179;42.640;23.312;2022-11-10T01:08:07;94216.53;;;11.49;55.12
20037;BME280;10179;42.640;23.312;2022-11-10T01:10:33;94224.59;;;11.47;55.03
20037;BME280;10179;42.640;23.312;2022-11-10T01:12:58;94311.38;;;12.04;55.20
20037;BME280;10179;42.640;23.312;2022-11-10T01:15:24;94323.41;;;11.93;55.24
20037;BME280;10179;42.640;23.312;2022-11-10T01:17:50;94310.00;;;12.01;55.12
20037;BME280;10179;42.640;23.312;2022-11-10T01:20:16;94278.78;;;11.80;55.01
20037;BME280;10179;42.640;23.312;2022-11-10T01:22:42;94321.38;;;11.95;54.98
20037;BME280;10179;42.640;23.312;2022-11-10T01:25:08;94308.88;;;11.90;54.95
20037;BME280;10179;42.640;23.312;2022-11-10T01:27:33;94315.81;;;11.85;54.83
20037;BME280;10179;42.640;23.312;2022-11-10T01:29:59;94258.22;;;11.45;54.80
20037;BME280;10179;42.640;23.312;2022-11-10T01:32:24;94308.16;;;11.77;55.02
20037;BME280;10179;42.640;23.312;2022-11-10T01:34:50;94300.69;;;11.74;55.04
20037;BME280;10179;42.640;23.312;2022-11-10T01:37:15;94257.84;;;11.41;55.26
20037;BME280;10179;42.640;23.312;2022-11-10T01:39:41;94308.59;;;11.74;55.21
20037;BME280;10179;42.640;23.312;2022-11-10T01:42:06;94284.44;;;11.58;55.06
20037;BME280;10179;42.640;23.312;2022-11-10T01:44:40;94306.38;;;11.70;55.14
20037;BME280;10179;42.640;23.312;2022-11-10T01:47:05;94249.84;;;11.30;55.30
20037;BME280;10179;42.640;23.312;2022-11-10T01:49:31;94267.13;;;11.44;55.27
20037;BME280;10179;42.640;23.312;2022-11-10T01:52:07;94063.91;;;10.12;54.90
20037;BME280;10179;42.640;23.312;2022-11-10T01:54:38;94313.94;;;11.60;54.96
20037;BME280;10179;42.640;23.312;2022-11-10T01:57:06;94307.50;;;11.56;55.10
20037;BME280;10179;42.640;23.312;2022-11-10T01:59:43;94304.66;;;11.58;55.15
20037;BME280;10179;42.640;23.312;2022-11-10T02:02:25;94302.69;;;11.53;55.24
20037;BME280;10179;42.640;23.312;2022-11-10T02:04:53;94146.13;;;10.44;55.32
20037;BME280;10179;42.640;23.312;2022-11-10T02:07:20;94290.03;;;11.37;55.50
20037;BME280;10179;42.640;23.312;2022-11-10T02:09:46;94243.34;;;11.07;55.72
20037;BME280;10179;42.640;23.312;2022-11-10T02:12:12;94304.78;;;11.44;55.94
20037;BME280;10179;42.640;23.312;2022-11-10T02:14:38;94300.50;;;11.43;55.98
20037;BME280;10179;42.640;23.312;2022-11-10T02:17:03;94283.78;;;11.38;56.22
20037;BME280;10179;42.640;23.312;2022-11-10T02:19:38;94266.44;;;11.30;56.26
20037;BME280;10179;42.640;23.312;2022-11-10T02:22:04;94286.97;;;11.40;56.18
20037;BME280;10179;42.640;23.312;2022-11-10T02:24:29;94313.19;;;11.53;56.39
20037;BME280;10179;42.640;23.312;2022-11-10T02:26:56;94218.56;;;10.90;56.33
20037;BME280;10179;42.640;23.312;2022-11-10T02:29:22;94277.75;;;11.31;56.54
20037;BME280;10179;42.640;23.312;2022-11-10T02:31:49;94272.94;;;11.28;56.55
20037;BME280;10179;42.640;23.312;2022-11-10T02:34:15;94322.22;;;11.64;56.60
20037;BME280;10179;42.640;23.312;2022-11-10T02:36:40;94331.28;;;11.68;56.58
20037;BME280;10179;42.640;23.312;2022-11-10T02:39:06;94328.03;;;11.73;56.53
20037;BME280;10179;42.640;23.312;2022-11-10T02:41:31;94295.81;;;11.52;56.34
20037;BME280;10179;42.640;23.312;2022-11-10T02:43:57;94329.22;;;11.77;56.31
20037;BME280;10179;42.640;23.312;2022-11-10T02:46:23;94326.59;;;11.77;56.38
20037;BME280;10179;42.640;23.312;2022-11-10T02:48:48;94179.47;;;10.75;56.32
20037;BME280;10179;42.640;23.312;2022-11-10T02:51:14;94334.47;;;11.77;56.39
20037;BME280;10179;42.640;23.312;2022-11-10T02:53:39;94246.03;;;11.26;56.13
20037;BME280;10179;42.640;23.312;2022-11-10T02:56:05;94226.13;;;11.11;56.08
20037;BME280;10179;42.640;23.312;2022-11-10T02:58:31;94259.03;;;11.20;56.08
20037;BME280;10179;42.640;23.312;2022-11-10T03:00:56;94323.63;;;11.66;55.60
20037;BME280;10179;42.640;23.312;2022-11-10T03:03:21;94342.31;;;11.58;55.59
20037;BME280;10179;42.640;23.312;2022-11-10T03:05:47;94271.41;;;11.13;55.86
20037;BME280;10179;42.640;23.312;2022-11-10T03:08:12;94294.81;;;11.21;55.83
20037;BME280;10179;42.640;23.312;2022-11-10T03:10:38;94331.53;;;11.35;56.14
20037;BME280;10179;42.640;23.312;2022-11-10T03:13:03;94338.66;;;11.28;56.16
20037;BME280;10179;42.640;23.312;2022-11-10T03:15:29;94284.88;;;10.92;56.23
20037;BME280;10179;42.640;23.312;2022-11-10T03:17:56;94333.06;;;11.17;56.19
20037;BME280;10179;42.640;23.312;2022-11-10T03:20:21;94270.00;;;10.72;56.34
20037;BME280;10179;42.640;23.312;2022-11-10T03:22:47;94149.19;;;9.89;56.48
20037;BME280;10179;42.640;23.312;2022-11-10T03:25:12;94335.34;;;11.07;56.54
20037;BME280;10179;42.640;23.312;2022-11-10T03:27:38;94329.09;;;11.02;56.71
20037;BME280;10179;42.640;23.312;2022-11-10T03:30:04;94341.19;;;11.09;56.76
20037;BME280;10179;42.640;23.312;2022-11-10T03:32:30;94342.59;;;11.12;56.70
20037;BME280;10179;42.640;23.312;2022-11-10T03:34:56;94342.19;;;11.08;56.62
20037;BME280;10179;42.640;23.312;2022-11-10T03:37:21;94337.34;;;11.05;56.67
20037;BME280;10179;42.640;23.312;2022-11-10T03:39:47;94334.16;;;11.03;56.83
20037;BME280;10179;42.640;23.312;2022-11-10T03:42:12;94324.31;;;10.92;56.70
20037;BME280;10179;42.640;23.312;2022-11-10T03:44:38;94311.88;;;10.67;56.91
20037;BME280;10179;42.640;23.312;2022-11-10T03:47:03;94360.84;;;11.00;56.70
20037;BME280;10179;42.640;23.312;2022-11-10T03:49:29;94317.50;;;10.78;56.91
20037;BME280;10179;42.640;23.312;2022-11-10T03:51:55;94341.47;;;10.88;57.03
20037;BME280;10179;42.640;23.312;2022-11-10T03:54:21;94356.63;;;10.99;57.24
20037;BME280;10179;42.640;23.312;2022-11-10T03:56:46;94371.97;;;11.02;57.08
20037;BME280;10179;42.640;23.312;2022-11-10T03:59:12;94297.88;;;10.73;57.13
20037;BME280;10179;42.640;23.312;2022-11-10T04:01:37;94355.94;;;11.10;57.03
20037;BME280;10179;42.640;23.312;2022-11-10T04:04:03;94263.63;;;10.55;56.94
20037;BME280;10179;42.640;23.312;2022-11-10T04:06:28;94349.09;;;11.09;56.93
20037;BME280;10179;42.640;23.312;2022-11-10T04:09:12;94356.97;;;11.09;56.66
20037;BME280;10179;42.640;23.312;2022-11-10T04:11:38;94343.47;;;10.99;56.79
20037;BME280;10179;42.640;23.312;2022-11-10T04:14:22;94330.97;;;10.88;56.51
20037;BME280;10179;42.640;23.312;2022-11-10T04:17:06;94287.03;;;10.63;56.53
20037;BME280;10179;42.640;23.312;2022-11-10T04:19:31;94353.13;;;11.05;56.56
20037;BME280;10179;42.640;23.312;2022-11-10T04:21:56;94361.63;;;11.07;56.53
20037;BME280;10179;42.640;23.312;2022-11-10T04:24:22;94328.81;;;10.78;56.48
20037;BME280;10179;42.640;23.312;2022-11-10T04:26:48;94335.66;;;10.86;56.46
20037;BME280;10179;42.640;23.312;2022-11-10T04:29:18;94320.31;;;10.76;56.26
20037;BME280;10179;42.640;23.312;2022-11-10T04:31:44;94298.38;;;10.57;56.26
20037;BME280;10179;42.640;23.312;2022-11-10T04:34:12;94326.78;;;10.73;56.11
20037;BME280;10179;42.640;23.312;2022-11-10T04:36:40;94369.34;;;11.02;56.11
20037;BME280;10179;42.640;23.312;2022-11-10T04:39:06;94341.09;;;10.84;55.96
20037;BME280;10179;42.640;23.312;2022-11-10T04:41:31;94346.34;;;10.84;55.78
20037;BME280;10179;42.640;23.312;2022-11-10T04:43:58;94263.75;;;10.15;55.84
20037;BME280;10179;42.640;23.312;2022-11-10T04:46:29;94347.19;;;10.85;55.77
20037;BME280;10179;42.640;23.312;2022-11-10T04:48:56;94330.84;;;10.69;55.84
20037;BME280;10179;42.640;23.312;2022-11-10T04:51:24;94369.59;;;10.87;55.85
20037;BME280;10179;42.640;23.312;2022-11-10T04:53:50;94360.91;;;10.87;56.03
20037;BME280;10179;42.640;23.312;2022-11-10T04:56:18;94375.06;;;10.86;55.95
20037;BME280;10179;42.640;23.312;2022-11-10T04:58:44;94367.59;;;10.83;55.88
20037;BME280;10179;42.640;23.312;2022-11-10T05:01:11;94388.00;;;10.81;56.29
20037;BME280;10179;42.640;23.312;2022-11-10T05:03:37;94308.16;;;10.37;56.63
20037;BME280;10179;42.640;23.312;2022-11-10T05:06:02;94340.00;;;10.60;56.31
20037;BME280;10179;42.640;23.312;2022-11-10T05:08:28;94373.47;;;10.85;56.26
20037;BME280;10179;42.640;23.312;2022-11-10T05:10:53;94381.13;;;10.86;56.36
20037;BME280;10179;42.640;23.312;2022-11-10T05:13:18;94378.28;;;10.88;56.37
20037;BME280;10179;42.640;23.312;2022-11-10T05:15:44;94315.81;;;10.32;56.40
20037;BME280;10179;42.640;23.312;2022-11-10T05:18:10;94381.69;;;10.95;56.64
20037;BME280;10179;42.640;23.312;2022-11-10T05:20:35;94386.53;;;10.98;56.42
20037;BME280;10179;42.640;23.312;2022-11-10T05:23:01;94136.44;;;9.41;56.26
20037;BME280;10179;42.640;23.312;2022-11-10T05:25:44;94336.31;;;10.74;56.31
20037;BME280;10179;42.640;23.312;2022-11-10T05:28:11;94375.84;;;10.93;56.28
20037;BME280;10179;42.640;23.312;2022-11-10T05:30:37;94376.47;;;10.88;56.36
20037;BME280;10179;42.640;23.312;2022-11-10T05:33:04;94351.03;;;10.82;56.22
20037;BME280;10179;42.640;23.312;2022-11-10T05:35:29;94323.38;;;10.66;56.51
20037;BME280;10179;42.640;23.312;2022-11-10T05:37:54;94322.38;;;10.74;56.66
20037;BME280;10179;42.640;23.312;2022-11-10T05:40:20;94306.03;;;10.65;56.58
20037;BME280;10179;42.640;23.312;2022-11-10T05:42:48;94355.56;;;11.07;56.50
20037;BME280;10179;42.640;23.312;2022-11-10T05:45:17;94388.22;;;11.31;56.30
20037;BME280;10179;42.640;23.312;2022-11-10T05:47:43;94390.19;;;11.35;56.02
20037;BME280;10179;42.640;23.312;2022-11-10T05:50:09;94365.53;;;11.30;56.04
20037;BME280;10179;42.640;23.312;2022-11-10T05:52:39;94281.28;;;10.80;55.88
20037;BME280;10179;42.640;23.312;2022-11-10T05:55:06;94403.38;;;11.67;56.42
20037;BME280;10179;42.640;23.312;2022-11-10T05:57:32;94395.16;;;11.82;56.51
20037;BME280;10179;42.640;23.312;2022-11-10T05:59:57;94405.22;;;11.98;56.46
20037;BME280;10179;42.640;23.312;2022-11-10T06:02:23;94367.41;;;11.86;56.26
20037;BME280;10179;42.640;23.312;2022-11-10T06:04:48;94398.91;;;12.24;55.95
20037;BME280;10179;42.640;23.312;2022-11-10T06:07:13;94370.00;;;12.17;55.84
20037;BME280;10179;42.640;23.312;2022-11-10T06:09:39;94393.16;;;12.52;55.75
20037;BME280;10179;42.640;23.312;2022-11-10T06:12:04;94256.53;;;11.76;55.31
20037;BME280;10179;42.640;23.312;2022-11-10T06:14:30;94384.28;;;12.72;55.62
20037;BME280;10179;42.640;23.312;2022-11-10T06:16:55;94412.59;;;13.13;55.84
20037;BME280;10179;42.640;23.312;2022-11-10T06:19:21;94394.03;;;13.20;55.35
20037;BME280;10179;42.640;23.312;2022-11-10T06:21:46;94423.75;;;13.64;54.90
20037;BME280;10179;42.640;23.312;2022-11-10T06:24:12;94431.97;;;13.85;54.13
20037;BME280;10179;42.640;23.312;2022-11-10T06:26:37;94427.44;;;14.04;53.60
20037;BME280;10179;42.640;23.312;2022-11-10T06:29:02;94398.47;;;13.98;53.25
20037;BME280;10179;42.640;23.312;2022-11-10T06:31:28;94338.38;;;13.70;52.42
20037;BME280;10179;42.640;23.312;2022-11-10T06:33:53;94431.63;;;14.36;51.92
20037;BME280;10179;42.640;23.312;2022-11-10T06:36:20;94315.63;;;13.69;51.70
20037;BME280;10179;42.640;23.312;2022-11-10T06:38:45;94449.25;;;14.53;51.43
20037;BME280;10179;42.640;23.312;2022-11-10T06:41:10;94451.41;;;14.56;51.11
20037;BME280;10179;42.640;23.312;2022-11-10T06:43:36;94419.06;;;14.31;51.09
20037;BME280;10179;42.640;23.312;2022-11-10T06:46:01;94461.78;;;14.58;50.78
20037;BME280;10179;42.640;23.312;2022-11-10T06:48:26;94430.34;;;14.38;50.81
20037;BME280;10179;42.640;23.312;2022-11-10T06:50:52;94434.00;;;14.14;50.88
20037;BME280;10179;42.640;23.312;2022-11-10T06:53:17;94460.63;;;14.54;51.04
20037;BME280;10179;42.640;23.312;2022-11-10T06:55:43;94437.25;;;14.39;51.04
20037;BME280;10179;42.640;23.312;2022-11-10T06:58:08;94370.94;;;14.05;51.06
20037;BME280;10179;42.640;23.312;2022-11-10T07:00:34;94468.69;;;14.71;51.15
20037;BME280;10179;42.640;23.312;2022-11-10T07:03:04;94466.59;;;14.85;51.35
20037;BME280;10179;42.640;23.312;2022-11-10T07:05:32;94466.69;;;15.01;51.21
20037;BME280;10179;42.640;23.312;2022-11-10T07:08:03;94378.31;;;14.62;50.72
20037;BME280;10179;42.640;23.312;2022-11-10T07:10:29;94400.13;;;14.93;50.70
20037;BME280;10179;42.640;23.312;2022-11-10T07:12:56;94468.34;;;15.66;50.01
20037;BME280;10179;42.640;23.312;2022-11-10T07:15:21;94408.38;;;15.48;49.08
20037;BME280;10179;42.640;23.312;2022-11-10T07:17:47;94464.59;;;16.08;48.89
20037;BME280;10179;42.640;23.312;2022-11-10T07:20:12;94246.38;;;14.89;48.17
20037;BME280;10179;42.640;23.312;2022-11-10T07:22:37;94470.88;;;16.52;47.51
20037;BME280;10179;42.640;23.312;2022-11-10T07:25:03;94475.41;;;16.68;47.00
20037;BME280;10179;42.640;23.312;2022-11-10T07:27:28;94474.78;;;16.78;46.17
20037;BME280;10179;42.640;23.312;2022-11-10T07:29:54;94476.53;;;16.89;46.30
20037;BME280;10179;42.640;23.312;2022-11-10T07:32:19;94462.78;;;16.92;45.77
20037;BME280;10179;42.640;23.312;2022-11-10T07:34:45;94479.72;;;17.08;45.17
20037;BME280;10179;42.640;23.312;2022-11-10T07:37:10;94478.44;;;17.11;44.98
20037;BME280;10179;42.640;23.312;2022-11-10T07:39:35;94476.97;;;17.20;44.89
20037;BME280;10179;42.640;23.312;2022-11-10T07:42:01;94436.31;;;16.98;44.54
20037;BME280;10179;42.640;23.312;2022-11-10T07:44:26;94471.72;;;17.47;44.30
20037;BME280;10179;42.640;23.312;2022-11-10T07:46:52;94467.81;;;17.55;43.66
20037;BME280;10179;42.640;23.312;2022-11-10T07:49:17;94460.91;;;17.54;43.75
20037;BME280;10179;42.640;23.312;2022-11-10T07:51:42;94440.47;;;17.32;43.08
20037;BME280;10179;42.640;23.312;2022-11-10T07:54:08;94471.97;;;17.46;43.36
20037;BME280;10179;42.640;23.312;2022-11-10T07:56:33;94451.53;;;17.24;43.73
20037;BME280;10179;42.640;23.312;2022-11-10T07:58:59;94469.00;;;17.20;43.61
20037;BME280;10179;42.640;23.312;2022-11-10T08:01:24;94435.53;;;16.80;43.99
20037;BME280;10179;42.640;23.312;2022-11-10T08:03:49;94308.47;;;15.89;44.32
20037;BME280;10179;42.640;23.312;2022-11-10T08:06:15;94485.66;;;16.99;44.74
20037;BME280;10179;42.640;23.312;2022-11-10T08:08:40;94425.56;;;16.54;44.92
20037;BME280;10179;42.640;23.312;2022-11-10T08:11:06;94481.84;;;16.89;44.94
20037;BME280;10179;42.640;23.312;2022-11-10T08:13:31;94480.72;;;16.85;44.96
20037;BME280;10179;42.640;23.312;2022-11-10T08:15:57;94418.00;;;16.45;45.18
20037;BME280;10179;42.640;23.312;2022-11-10T08:18:23;94346.03;;;16.03;45.17
20037;BME280;10179;42.640;23.312;2022-11-10T08:20:49;94397.84;;;16.28;45.23
20037;BME280;10179;42.640;23.312;2022-11-10T08:23:16;94475.91;;;16.82;45.13
20037;BME280;10179;42.640;23.312;2022-11-10T08:25:42;94474.31;;;16.81;45.05
20037;BME280;10179;42.640;23.312;2022-11-10T08:28:10;94184.97;;;14.87;45.02
20037;BME280;10179;42.640;23.312;2022-11-10T08:30:37;94390.41;;;16.08;45.07
20037;BME280;10179;42.640;23.312;2022-11-10T08:33:05;94500.00;;;16.64;45.08
20037;BME280;10179;42.640;23.312;2022-11-10T08:35:34;94358.09;;;15.77;45.52
20037;BME280;10179;42.640;23.312;2022-11-10T08:38:11;94432.16;;;16.34;45.60
20037;BME280;10179;42.640;23.312;2022-11-10T08:40:38;94404.03;;;16.16;45.56
20037;BME280;10179;42.640;23.312;2022-11-10T08:43:04;94188.31;;;14.66;45.73
20037;BME280;10179;42.640;23.312;2022-11-10T08:45:34;94373.50;;;15.80;45.83
20037;BME280;10179;42.640;23.312;2022-11-10T08:48:05;94494.28;;;16.72;45.65
20037;BME280;10179;42.640;23.312;2022-11-10T08:50:31;94481.50;;;16.69;45.27
20037;BME280;10179;42.640;23.312;2022-11-10T08:53:02;94439.72;;;16.26;45.24
20037;BME280;10179;42.640;23.312;2022-11-10T08:55:27;94490.19;;;16.48;45.83
20037;BME280;10179;42.640;23.312;2022-11-10T08:57:57;94491.72;;;16.43;45.83
20037;BME280;10179;42.640;23.312;2022-11-10T09:00:23;94402.72;;;15.85;46.02
20037;BME280;10179;42.640;23.312;2022-11-10T09:02:48;94480.94;;;16.33;45.83
20037;BME280;10179;42.640;23.312;2022-11-10T09:05:14;94519.66;;;16.34;45.75
20037;BME280;10179;42.640;23.312;2022-11-10T09:07:43;94502.03;;;16.28;45.97
20037;BME280;10179;42.640;23.312;2022-11-10T09:10:09;94476.69;;;16.04;46.28
20037;BME280;10179;42.640;23.312;2022-11-10T09:12:36;94503.97;;;16.16;46.63
20037;BME280;10179;42.640;23.312;2022-11-10T09:15:01;94500.66;;;16.09;46.66
20037;BME280;10179;42.640;23.312;2022-11-10T09:17:26;94487.47;;;15.97;47.17
20037;BME280;10179;42.640;23.312;2022-11-10T09:19:52;94225.16;;;14.32;46.99
20037;BME280;10179;42.640;23.312;2022-11-10T09:22:17;94447.66;;;15.80;47.03
20037;BME280;10179;42.640;23.312;2022-11-10T09:24:43;94497.06;;;16.15;47.17
20037;BME280;10179;42.640;23.312;2022-11-10T09:27:08;94515.22;;;16.23;47.15
20037;BME280;10179;42.640;23.312;2022-11-10T09:29:34;94478.97;;;16.12;47.17
20037;BME280;10179;42.640;23.312;2022-11-10T09:31:59;94454.66;;;16.15;47.30
20037;BME280;10179;42.640;23.312;2022-11-10T09:34:24;94398.53;;;15.89;47.04
20037;BME280;10179;42.640;23.312;2022-11-10T09:36:50;94185.63;;;14.37;46.78
20037;BME280;10179;42.640;23.312;2022-11-10T09:39:15;94466.53;;;16.46;46.80
20037;BME280;10179;42.640;23.312;2022-11-10T09:41:42;94455.28;;;16.39;46.93
20037;BME280;10179;42.640;23.312;2022-11-10T09:44:17;94483.03;;;16.65;46.87
20037;BME280;10179;42.640;23.312;2022-11-10T09:46:59;94457.88;;;16.51;46.55
20037;BME280;10179;42.640;23.312;2022-11-10T09:49:33;94484.72;;;16.71;46.37
20037;BME280;10179;42.640;23.312;2022-11-10T09:52:00;94450.00;;;16.56;46.43
20037;BME280;10179;42.640;23.312;2022-11-10T09:56:52;94476.69;;;16.66;46.67
20037;BME280;10179;42.640;23.312;2022-11-10T09:59:25;94466.53;;;16.46;46.56
20037;BME280;10179;42.640;23.312;2022-11-10T10:10:03;94477.47;;;16.50;47.83
20037;BME280;10179;42.640;23.312;2022-11-10T10:15:26;94473.44;;;16.30;48.16
20037;BME280;10179;42.640;23.312;2022-11-10T10:18:03;94468.63;;;16.27;48.73
20037;BME280;10179;42.640;23.312;2022-11-10T10:20:45;94418.78;;;15.95;48.83
20037;BME280;10179;42.640;23.312;2022-11-10T10:23:32;94439.06;;;16.18;48.46
20037;BME280;10179;42.640;23.312;2022-11-10T10:25:59;94471.06;;;16.29;48.30
20037;BME280;10179;42.640;23.312;2022-11-10T10:31:06;94375.56;;;15.78;48.30
20037;BME280;10179;42.640;23.312;2022-11-10T10:33:36;94472.91;;;16.45;48.45
20037;BME280;10179;42.640;23.312;2022-11-10T10:36:07;94463.72;;;16.53;48.01
20037;BME280;10179;42.640;23.312;2022-11-10T10:38:36;94472.25;;;16.55;48.13
20037;BME280;10179;42.640;23.312;2022-11-10T10:41:13;94474.66;;;16.56;48.00
20037;BME280;10179;42.640;23.312;2022-11-10T10:43:47;94342.75;;;15.79;48.18
20037;BME280;10179;42.640;23.312;2022-11-10T10:46:14;94451.75;;;16.33;48.05
20037;BME280;10179;42.640;23.312;2022-11-10T10:48:41;94400.41;;;16.06;47.94
20037;BME280;10179;42.640;23.312;2022-11-10T10:51:07;94351.84;;;15.83;47.78
20037;BME280;10179;42.640;23.312;2022-11-10T10:53:44;94436.19;;;16.54;48.26
20037;BME280;10179;42.640;23.312;2022-11-10T10:56:18;94459.00;;;16.72;48.32
20037;BME280;10179;42.640;23.312;2022-11-10T10:58:55;94454.03;;;16.75;47.91
20037;BME280;10179;42.640;23.312;2022-11-10T11:01:31;94446.94;;;16.81;47.48
20037;BME280;10179;42.640;23.312;2022-11-10T11:03:57;94429.88;;;16.60;47.32
20037;BME280;10179;42.640;23.312;2022-11-10T11:06:28;94435.84;;;16.67;47.64
20037;BME280;10179;42.640;23.312;2022-11-10T11:11:40;94297.88;;;15.89;47.23
20037;BME280;10179;42.640;23.312;2022-11-10T11:14:26;94414.44;;;16.74;47.52
20037;BME280;10179;42.640;23.312;2022-11-10T11:16:54;94434.56;;;16.86;47.20
20037;BME280;10179;42.640;23.312;2022-11-10T11:19:24;94436.00;;;16.94;47.18
20037;BME280;10179;42.640;23.312;2022-11-10T11:22:04;94430.03;;;17.04;47.38
20037;BME280;10179;42.640;23.312;2022-11-10T11:24:42;94427.56;;;17.19;47.05
20037;BME280;10179;42.640;23.312;2022-11-10T11:27:32;94428.50;;;17.30;46.82
20037;BME280;10179;42.640;23.312;2022-11-10T11:30:04;94427.50;;;17.36;46.32
20037;BME280;10179;42.640;23.312;2022-11-10T11:32:52;94424.72;;;17.48;46.31
20037;BME280;10179;42.640;23.312;2022-11-10T11:38:14;94402.81;;;17.35;46.00
20037;BME280;10179;42.640;23.312;2022-11-10T11:46:46;94417.50;;;17.43;45.99
20037;BME280;10179;42.640;23.312;2022-11-10T11:55:22;94412.16;;;17.65;46.02
20037;BME280;10179;42.640;23.312;2022-11-10T12:03:19;94424.59;;;17.81;45.30
20037;BME280;10179;42.640;23.312;2022-11-10T12:05:55;94420.16;;;17.87;45.21
20037;BME280;10179;42.640;23.312;2022-11-10T12:16:30;94417.47;;;17.87;44.99
20037;BME280;10179;42.640;23.312;2022-11-10T12:24:41;94420.19;;;17.92;44.80
20037;BME280;10179;42.640;23.312;2022-11-10T12:27:19;94425.78;;;17.96;44.69
20037;BME280;10179;42.640;23.312;2022-11-10T12:30:00;94418.97;;;18.05;44.67
20037;BME280;10179;42.640;23.312;2022-11-10T12:32:31;94422.19;;;18.07;44.61
20037;BME280;10179;42.640;23.312;2022-11-10T12:35:05;94409.66;;;18.02;44.69
20037;BME280;10179;42.640;23.312;2022-11-10T12:42:39;94429.50;;;18.22;44.23
20037;BME280;10179;42.640;23.312;2022-11-10T12:47:43;94437.72;;;18.20;44.15
20037;BME280;10179;42.640;23.312;2022-11-10T12:55:14;94362.50;;;17.93;43.92
20037;BME280;10179;42.640;23.312;2022-11-10T12:57:41;94412.91;;;18.42;43.99
20037;BME280;10179;42.640;23.312;2022-11-10T13:00:25;94414.34;;;18.54;43.64
20037;BME280;10179;42.640;23.312;2022-11-10T13:02:52;94421.47;;;18.49;43.49
20037;BME280;10179;42.640;23.312;2022-11-10T13:07:49;94417.63;;;18.34;43.55
20037;BME280;10179;42.640;23.312;2022-11-10T13:10:28;94413.31;;;18.28;43.82
20037;BME280;10179;42.640;23.312;2022-11-10T13:13:10;94432.16;;;18.54;43.52
20037;BME280;10179;42.640;23.312;2022-11-10T13:18:08;94421.97;;;18.46;43.43
20037;BME280;10179;42.640;23.312;2022-11-10T13:23:20;94421.53;;;18.59;43.33
20037;BME280;10179;42.640;23.312;2022-11-10T13:26:50;94427.22;;;18.68;43.21
20037;BME280;10179;42.640;23.312;2022-11-10T13:36:43;94449.00;;;18.65;43.10
20037;BME280;10179;42.640;23.312;2022-11-10T13:39:22;94428.94;;;18.52;43.00
20037;BME280;10179;42.640;23.312;2022-11-10T13:47:13;94448.25;;;18.37;42.84
20037;BME280;10179;42.640;23.312;2022-11-10T13:58:01;94305.91;;;17.11;42.27
20037;BME280;10179;42.640;23.312;2022-11-10T14:00:32;94358.16;;;17.32;41.94
20037;BME280;10179;42.640;23.312;2022-11-10T14:08:04;94451.50;;;17.68;41.44
20037;BME280;10179;42.640;23.312;2022-11-10T14:15:44;94443.94;;;17.33;41.16
20037;BME280;10179;42.640;23.312;2022-11-10T14:18:16;94498.63;;;17.34;41.22
20037;BME280;10179;42.640;23.312;2022-11-10T14:20:44;94446.41;;;17.17;41.06
20037;BME280;10179;42.640;23.312;2022-11-10T14:23:52;94452.38;;;17.30;40.73
20037;BME280;10179;42.640;23.312;2022-11-10T14:28:47;94410.06;;;16.79;40.50
20037;BME280;10179;42.640;23.312;2022-11-10T14:31:19;94470.72;;;17.09;39.95
20037;BME280;10179;42.640;23.312;2022-11-10T14:33:56;94465.06;;;17.06;39.90
20037;BME280;10179;42.640;23.312;2022-11-10T14:36:22;94381.38;;;16.42;39.30
20037;BME280;10179;42.640;23.312;2022-11-10T14:38:49;94448.56;;;16.82;39.19
20037;BME280;10179;42.640;23.312;2022-11-10T14:41:20;94392.59;;;16.50;39.27
20037;BME280;10179;42.640;23.312;2022-11-10T14:44:04;94478.13;;;16.90;39.45